Time;durP1;ratioP1;P1;durP2;ratioP2;P2;SDS_P1;SDS_P2;PMS_P1;PMS_P2;Temp;Humidity;BMP_temperature;BMP_pressure;BME280_temperature;BME280_humidity;BME280_pressure;Samples;Min_cycle;Max_cycle;Signal;HPM_P1;HPM_P2
2023/07/01 00:02:25;;;;;;;13.05;4.95;;;15.80;99.90;;;;;;5074642;28;20164;-67
2023/07/01 00:04:50;;;;;;;10.27;5.00;;;15.70;99.90;;;;;;5074345;28;20066;-67
2023/07/01 00:07:16;;;;;;;14.75;6.20;;;15.80;99.90;;;;;;5074140;28;20017;-67
2023/07/01 00:09:41;;;;;;;10.38;5.15;;;15.70;99.90;;;;;;5074231;28;20025;-67
2023/07/01 00:12:07;;;;;;;11.88;5.30;;;15.70;99.90;;;;;;5074586;28;20021;-66
2023/07/01 00:14:32;;;;;;;17.60;7.15;;;15.70;99.90;;;;;;5074452;28;20024;-66
2023/07/01 00:17:01;;;;;;;12.57;6.05;;;15.70;99.90;;;;;;5074916;28;20029;-65
2023/07/01 00:19:26;;;;;;;13.50;6.53;;;15.70;99.90;;;;;;5072292;28;20028;-66
2023/07/01 00:21:52;;;;;;;13.77;6.05;;;15.70;99.90;;;;;;5075254;28;20021;-66
2023/07/01 00:24:17;;;;;;;10.77;3.92;;;15.80;99.90;;;;;;5075053;28;20040;-66
2023/07/01 00:26:43;;;;;;;12.30;5.88;;;15.80;99.90;;;;;;5075493;28;20062;-66
2023/07/01 00:29:08;;;;;;;13.32;6.88;;;15.70;99.90;;;;;;5075239;28;20029;-66
2023/07/01 00:31:34;;;;;;;14.15;7.00;;;15.80;99.90;;;;;;5075005;28;20024;-68
2023/07/01 00:33:59;;;;;;;12.05;6.05;;;15.70;99.90;;;;;;5074204;28;20562;-67
2023/07/01 00:36:25;;;;;;;11.13;6.18;;;15.70;99.90;;;;;;5075400;28;20083;-67
2023/07/01 00:38:51;;;;;;;10.63;5.45;;;15.70;99.90;;;;;;5074954;28;20036;-66
2023/07/01 00:41:17;;;;;;;13.57;6.65;;;15.70;99.90;;;;;;5075178;28;20044;-66
2023/07/01 00:43:43;;;;;;;9.93;5.60;;;15.70;99.90;;;;;;5075072;28;20028;-67
2023/07/01 00:46:09;;;;;;;12.65;5.45;;;15.80;99.90;;;;;;5075077;28;20362;-66
2023/07/01 00:48:36;;;;;;;11.93;4.95;;;15.70;99.90;;;;;;5074010;28;20547;-66
2023/07/01 00:51:02;;;;;;;12.23;4.93;;;15.70;99.90;;;;;;5074992;28;20043;-66
2023/07/01 00:53:27;;;;;;;8.43;4.95;;;15.80;99.90;;;;;;5074735;28;20028;-66
2023/07/01 00:55:53;;;;;;;11.77;6.10;;;15.80;99.90;;;;;;5074811;28;20117;-66
2023/07/01 00:58:19;;;;;;;10.82;5.68;;;15.80;99.90;;;;;;5074486;28;20037;-66
2023/07/01 01:00:44;;;;;;;11.23;5.53;;;15.80;99.90;;;;;;5074757;28;20024;-65
2023/07/01 01:03:21;;;;;;;8.98;4.85;;;15.80;99.90;;;;;;5074736;28;20070;-66
2023/07/01 01:05:57;;;;;;;13.57;6.45;;;15.80;99.90;;;;;;5074891;28;20070;-67
2023/07/01 01:08:39;;;;;;;12.15;6.45;;;15.80;99.90;;;;;;5074659;28;20047;-66
2023/07/01 01:11:05;;;;;;;11.52;7.07;;;15.80;99.90;;;;;;5074503;28;20017;-65
2023/07/01 01:13:32;;;;;;;14.90;5.10;;;15.80;99.90;;;;;;5074476;28;20429;-66
2023/07/01 01:15:58;;;;;;;13.38;6.35;;;15.80;99.90;;;;;;5074183;28;20032;-66
2023/07/01 01:18:28;;;;;;;12.05;7.13;;;15.80;99.90;;;;;;5072397;28;20029;-66
2023/07/01 01:20:54;;;;;;;12.18;6.88;;;15.80;99.90;;;;;;5062193;28;20733;-67
2023/07/01 01:23:25;;;;;;;12.07;6.93;;;15.80;99.90;;;;;;5067935;28;20111;-66
2023/07/01 01:26:15;;;;;;;11.52;6.82;;;15.80;99.90;;;;;;5071343;28;20067;-66
2023/07/01 01:28:41;;;;;;;15.05;7.93;;;15.80;99.90;;;;;;5073423;28;20037;-65
2023/07/01 01:31:06;;;;;;;13.07;6.88;;;15.80;99.90;;;;;;5073970;28;20380;-67
2023/07/01 01:33:32;;;;;;;13.80;8.15;;;15.80;99.90;;;;;;5074311;28;20056;-66
2023/07/01 01:36:12;;;;;;;13.63;7.25;;;15.80;99.90;;;;;;5074322;28;20045;-66
2023/07/01 01:38:40;;;;;;;16.95;8.88;;;15.80;99.90;;;;;;5074308;28;20037;-67
2023/07/01 01:41:30;;;;;;;17.00;9.48;;;15.80;99.90;;;;;;5073647;28;20631;-65
2023/07/01 01:44:09;;;;;;;18.02;10.05;;;15.80;99.90;;;;;;5074025;28;20775;-65
2023/07/01 01:46:35;;;;;;;19.20;10.60;;;15.80;99.90;;;;;;5074025;28;20375;-66
2023/07/01 01:49:03;;;;;;;13.75;9.07;;;15.80;99.90;;;;;;5073964;28;20036;-66
2023/07/01 01:51:31;;;;;;;17.75;10.65;;;15.90;99.90;;;;;;5073862;28;20032;-66
2023/07/01 01:53:58;;;;;;;11.82;7.28;;;15.90;99.90;;;;;;5073394;28;20517;-66
2023/07/01 01:56:25;;;;;;;17.80;10.80;;;15.90;99.90;;;;;;5072408;28;20039;-65
2023/07/01 01:58:51;;;;;;;17.55;11.20;;;15.90;99.90;;;;;;5072767;28;20028;-66
2023/07/01 02:01:16;;;;;;;20.17;11.88;;;15.90;99.90;;;;;;5062031;28;20465;-64
2023/07/01 02:03:44;;;;;;;11.95;5.53;;;15.90;99.90;;;;;;5073359;28;20032;-65
2023/07/01 02:06:10;;;;;;;19.02;11.32;;;15.90;99.90;;;;;;5073375;28;20043;-65
2023/07/01 02:08:36;;;;;;;17.58;11.63;;;15.90;99.90;;;;;;5073170;28;20368;-65
2023/07/01 02:11:01;;;;;;;17.67;9.65;;;15.90;99.90;;;;;;5073352;28;20033;-65
2023/07/01 02:13:27;;;;;;;18.33;10.05;;;15.90;99.90;;;;;;5073220;28;20116;-65
2023/07/01 02:15:52;;;;;;;17.05;11.43;;;15.90;99.90;;;;;;5073102;28;20028;-66
2023/07/01 02:18:18;;;;;;;20.52;10.30;;;15.90;99.90;;;;;;5073123;28;20518;-66
2023/07/01 02:20:44;;;;;;;20.00;11.82;;;15.90;99.90;;;;;;5072736;28;20415;-66
2023/07/01 02:23:10;;;;;;;21.35;12.75;;;16.00;99.90;;;;;;5072381;28;20456;-66
2023/07/01 02:25:35;;;;;;;20.92;11.68;;;16.00;99.90;;;;;;5073156;28;20036;-65
2023/07/01 02:28:01;;;;;;;20.52;12.15;;;16.00;99.90;;;;;;5072847;28;20032;-65
2023/07/01 02:30:28;;;;;;;19.42;12.57;;;16.00;99.90;;;;;;5071911;28;20028;-66
2023/07/01 02:32:53;;;;;;;19.73;12.50;;;16.00;99.90;;;;;;5072063;28;20119;-65
2023/07/01 02:35:19;;;;;;;16.20;9.27;;;16.00;99.90;;;;;;5071836;28;20132;-66
2023/07/01 02:37:45;;;;;;;21.70;13.18;;;16.00;99.90;;;;;;5072837;28;20047;-66
2023/07/01 02:40:10;;;;;;;19.25;12.02;;;16.00;99.90;;;;;;5070859;28;20055;-66
2023/07/01 02:42:36;;;;;;;18.95;12.13;;;16.00;99.90;;;;;;5072664;28;20055;-66
2023/07/01 02:45:04;;;;;;;17.63;10.65;;;16.00;99.90;;;;;;5072658;28;20040;-66
2023/07/01 02:47:30;;;;;;;17.92;11.52;;;16.00;99.90;;;;;;5072285;28;20475;-66
2023/07/01 02:49:56;;;;;;;19.33;11.02;;;16.00;99.90;;;;;;5072659;28;20035;-64
2023/07/01 02:52:22;;;;;;;20.83;12.15;;;16.10;99.90;;;;;;5071697;28;20040;-65
2023/07/01 02:54:48;;;;;;;18.40;10.40;;;16.10;99.90;;;;;;5072031;28;20491;-65
2023/07/01 02:57:13;;;;;;;17.67;10.55;;;16.10;99.90;;;;;;5071184;28;20033;-65
2023/07/01 02:59:39;;;;;;;15.95;9.43;;;16.10;99.90;;;;;;5072358;28;20029;-67
2023/07/01 03:02:05;;;;;;;15.43;8.43;;;16.10;99.90;;;;;;5072608;28;20025;-67
2023/07/01 03:04:32;;;;;;;19.35;11.52;;;16.10;99.90;;;;;;5071928;28;20119;-66
2023/07/01 03:06:58;;;;;;;11.52;6.13;;;16.20;99.90;;;;;;5072052;28;20060;-66
2023/07/01 03:09:23;;;;;;;18.00;10.02;;;16.10;99.90;;;;;;5072469;28;20114;-66
2023/07/01 03:11:49;;;;;;;20.15;11.52;;;16.10;99.90;;;;;;5072247;28;20032;-66
2023/07/01 03:14:15;;;;;;;17.85;10.60;;;16.20;99.90;;;;;;5072074;28;20060;-66
2023/07/01 03:16:41;;;;;;;18.08;9.30;;;16.20;99.90;;;;;;5072199;28;20020;-66
2023/07/01 03:19:07;;;;;;;18.20;10.95;;;16.20;99.90;;;;;;5072356;28;20124;-66
2023/07/01 03:21:34;;;;;;;18.45;11.50;;;16.20;99.90;;;;;;5071962;28;20048;-66
2023/07/01 03:24:00;;;;;;;20.77;11.63;;;16.20;99.90;;;;;;5072095;28;20041;-67
2023/07/01 03:26:26;;;;;;;16.92;9.57;;;16.30;99.90;;;;;;5072177;28;20064;-65
2023/07/01 03:28:53;;;;;;;19.40;12.75;;;16.30;99.90;;;;;;5071786;28;20060;-66
2023/07/01 03:31:19;;;;;;;16.48;9.57;;;16.30;99.90;;;;;;5072237;28;20052;-66
2023/07/01 03:33:45;;;;;;;18.67;11.30;;;16.30;99.90;;;;;;5071583;28;20476;-67
2023/07/01 03:36:11;;;;;;;19.13;10.82;;;16.30;99.90;;;;;;5072192;28;20426;-66
2023/07/01 03:38:36;;;;;;;18.05;10.45;;;16.30;99.90;;;;;;5071960;28;20062;-66
2023/07/01 03:41:02;;;;;;;15.30;8.73;;;16.40;99.90;;;;;;5072059;28;20441;-66
2023/07/01 03:43:28;;;;;;;16.65;9.63;;;16.40;99.90;;;;;;5072074;28;20539;-66
2023/07/01 03:45:54;;;;;;;15.68;8.73;;;16.40;99.90;;;;;;5072255;28;20032;-66
2023/07/01 03:48:20;;;;;;;13.73;7.20;;;16.40;99.90;;;;;;5072251;28;20032;-67
2023/07/01 03:50:46;;;;;;;13.85;8.45;;;16.40;99.90;;;;;;5072027;28;20517;-66
2023/07/01 03:53:11;;;;;;;14.38;8.48;;;16.40;99.90;;;;;;5071801;28;20028;-68
2023/07/01 03:55:37;;;;;;;14.98;8.70;;;16.40;99.90;;;;;;5071934;28;20103;-67
2023/07/01 03:58:04;;;;;;;13.98;7.90;;;16.40;99.90;;;;;;5071798;28;20393;-67
2023/07/01 04:00:30;;;;;;;13.52;7.80;;;16.40;99.90;;;;;;5072072;28;20077;-65
2023/07/01 04:02:55;;;;;;;13.73;7.45;;;16.50;99.90;;;;;;5072363;28;20117;-67
2023/07/01 04:05:21;;;;;;;15.65;8.07;;;16.50;99.90;;;;;;5071610;28;20040;-67
2023/07/01 04:07:48;;;;;;;11.23;6.05;;;16.50;99.90;;;;;;5072302;28;20033;-66
2023/07/01 04:10:15;;;;;;;13.85;6.63;;;16.50;99.90;;;;;;5072134;28;20031;-65
2023/07/01 04:12:41;;;;;;;10.75;6.25;;;16.50;99.90;;;;;;5071807;28;20024;-66
2023/07/01 04:15:10;;;;;;;12.02;7.35;;;16.50;99.90;;;;;;5071628;28;20455;-67
2023/07/01 04:17:43;;;;;;;13.45;7.75;;;16.60;99.90;;;;;;5072063;28;20123;-67
2023/07/01 04:20:10;;;;;;;10.90;6.43;;;16.60;99.90;;;;;;5072074;28;20036;-67
2023/07/01 04:22:36;;;;;;;11.25;6.55;;;16.60;99.90;;;;;;5073005;28;20044;-67
2023/07/01 04:25:03;;;;;;;12.18;7.32;;;16.70;99.90;;;;;;5075593;28;20044;-67
2023/07/01 04:27:29;;;;;;;13.00;5.80;;;16.70;99.90;;;;;;5075862;28;20036;-67
2023/07/01 04:29:55;;;;;;;13.68;6.25;;;16.70;99.90;;;;;;5075304;28;20036;-66
2023/07/01 04:32:20;;;;;;;14.23;5.90;;;16.70;99.90;;;;;;5074982;28;20027;-67
2023/07/01 04:34:46;;;;;;;16.50;5.18;;;16.80;99.90;;;;;;5070021;28;20071;-67
2023/07/01 04:37:11;;;;;;;10.32;4.45;;;16.90;99.90;;;;;;5054021;28;20076;-67
2023/07/01 04:39:37;;;;;;;18.17;5.68;;;16.90;99.90;;;;;;5067821;28;20055;-67
2023/07/01 04:42:03;;;;;;;11.10;5.60;;;17.00;99.90;;;;;;5061869;28;20029;-66
2023/07/01 04:44:28;;;;;;;19.23;6.10;;;17.00;99.90;;;;;;5058290;28;20073;-66
2023/07/01 04:46:54;;;;;;;17.98;6.05;;;17.00;99.90;;;;;;5064110;28;20029;-66
2023/07/01 04:49:19;;;;;;;13.70;5.57;;;17.10;99.90;;;;;;5055283;28;20112;-67
2023/07/01 04:51:45;;;;;;;14.82;6.03;;;17.10;99.90;;;;;;5055328;28;20405;-67
2023/07/01 04:54:10;;;;;;;17.80;5.65;;;17.10;99.90;;;;;;5055128;28;20025;-67
2023/07/01 04:56:36;;;;;;;11.07;5.60;;;17.10;99.90;;;;;;5055304;28;20468;-66
2023/07/01 04:59:02;;;;;;;19.08;6.68;;;17.20;99.90;;;;;;5055168;28;20033;-67
2023/07/01 05:01:28;;;;;;;17.15;6.22;;;17.20;99.90;;;;;;5054736;28;20418;-67
2023/07/01 05:03:54;;;;;;;12.65;5.68;;;17.20;99.90;;;;;;5054954;28;20036;-66
2023/07/01 05:06:19;;;;;;;14.23;5.25;;;17.20;99.90;;;;;;5054964;28;20028;-67
2023/07/01 05:08:45;;;;;;;12.50;4.70;;;17.30;99.90;;;;;;5054744;28;20033;-67
2023/07/01 05:11:11;;;;;;;12.57;4.82;;;17.30;99.90;;;;;;5054950;28;20033;-67
2023/07/01 05:13:37;;;;;;;10.50;4.32;;;17.30;99.90;;;;;;5055019;28;20182;-67
2023/07/01 05:16:02;;;;;;;12.15;5.13;;;17.30;99.90;;;;;;5054651;28;20029;-66
2023/07/01 05:18:28;;;;;;;11.73;4.78;;;17.30;99.90;;;;;;5054857;28;20025;-66
2023/07/01 05:20:54;;;;;;;11.40;4.82;;;17.30;99.90;;;;;;5054320;28;20552;-66
2023/07/01 05:23:19;;;;;;;7.20;4.07;;;17.40;99.90;;;;;;5054474;28;20071;-66
2023/07/01 05:25:45;;;;;;;13.32;4.18;;;17.40;99.90;;;;;;5054323;28;20021;-66
2023/07/01 05:28:10;;;;;;;9.50;3.58;;;17.40;99.90;;;;;;5054265;28;20032;-67
2023/07/01 05:30:37;;;;;;;10.13;4.05;;;17.40;99.90;;;;;;5053969;28;20044;-67
2023/07/01 05:33:03;;;;;;;11.88;4.03;;;17.40;99.90;;;;;;5054154;28;20025;-65
2023/07/01 05:35:28;;;;;;;13.00;4.28;;;17.40;99.90;;;;;;5070759;28;20058;-66
2023/07/01 05:37:54;;;;;;;8.80;4.47;;;17.40;99.90;;;;;;5074243;28;20076;-67
2023/07/01 05:40:20;;;;;;;10.32;4.20;;;17.50;99.90;;;;;;5074472;28;20064;-67
2023/07/01 05:42:45;;;;;;;14.15;4.22;;;17.50;99.90;;;;;;5074361;28;20051;-66
2023/07/01 05:45:11;;;;;;;12.82;4.85;;;17.40;99.90;;;;;;5074075;28;20474;-67
2023/07/01 05:47:37;;;;;;;12.52;4.63;;;17.40;99.90;;;;;;5074267;28;20073;-67
2023/07/01 05:50:03;;;;;;;16.02;4.68;;;17.40;99.90;;;;;;5074156;28;20032;-67
2023/07/01 05:52:29;;;;;;;10.48;4.65;;;17.50;99.90;;;;;;5074126;28;20060;-67
2023/07/01 05:54:54;;;;;;;15.60;4.32;;;17.50;99.90;;;;;;5073973;28;20067;-66
2023/07/01 05:57:20;;;;;;;11.25;4.10;;;17.50;99.90;;;;;;5074264;28;20123;-66
2023/07/01 05:59:45;;;;;;;9.52;3.65;;;17.50;99.90;;;;;;5073693;28;20033;-66
2023/07/01 06:02:11;;;;;;;10.48;3.60;;;17.50;99.90;;;;;;5073659;28;20029;-67
2023/07/01 06:04:36;;;;;;;14.65;3.58;;;17.50;99.90;;;;;;5072562;28;20419;-67
2023/07/01 06:07:02;;;;;;;12.60;3.83;;;17.50;99.90;;;;;;5073455;28;20048;-67
2023/07/01 06:09:28;;;;;;;8.38;3.70;;;17.50;99.90;;;;;;5073477;28;20074;-67
2023/07/01 06:11:53;;;;;;;5.93;2.90;;;17.50;99.90;;;;;;5073521;28;20048;-67
2023/07/01 06:14:19;;;;;;;11.07;2.95;;;17.50;99.90;;;;;;5073337;28;20025;-67
2023/07/01 06:16:44;;;;;;;9.43;3.05;;;17.50;99.90;;;;;;5073038;28;20024;-66
2023/07/01 06:19:10;;;;;;;10.63;3.55;;;17.50;99.90;;;;;;5073273;28;20495;-67
2023/07/01 06:21:36;;;;;;;9.80;3.15;;;17.60;99.90;;;;;;5073115;28;20032;-66
2023/07/01 06:24:01;;;;;;;6.10;2.70;;;17.60;99.90;;;;;;5073327;28;20046;-66
2023/07/01 06:26:27;;;;;;;8.15;3.22;;;17.60;99.90;;;;;;5073203;28;20106;-66
2023/07/01 06:28:52;;;;;;;6.35;2.80;;;17.60;99.90;;;;;;5072573;28;20111;-67
2023/07/01 06:31:18;;;;;;;8.70;3.17;;;17.60;99.90;;;;;;5073120;28;20036;-67
2023/07/01 06:33:44;;;;;;;5.45;2.33;;;17.60;99.90;;;;;;5073142;28;20043;-67
2023/07/01 06:36:10;;;;;;;6.80;2.70;;;17.60;99.90;;;;;;5073235;28;20033;-67
2023/07/01 06:38:36;;;;;;;6.88;2.50;;;17.60;99.90;;;;;;5073067;28;20079;-67
2023/07/01 06:41:01;;;;;;;6.60;2.75;;;17.60;99.90;;;;;;5073144;28;20050;-67
2023/07/01 06:43:27;;;;;;;4.82;2.55;;;17.60;99.90;;;;;;5072981;28;20036;-67
2023/07/01 06:45:54;;;;;;;5.10;2.30;;;17.60;99.90;;;;;;5072088;28;20036;-67
2023/07/01 06:48:20;;;;;;;5.93;2.53;;;17.70;99.90;;;;;;5072665;28;20032;-66
2023/07/01 06:50:45;;;;;;;4.85;2.17;;;17.70;99.90;;;;;;5072422;28;20081;-66
2023/07/01 06:53:11;;;;;;;5.28;2.28;;;17.70;99.90;;;;;;5071609;28;20415;-67
2023/07/01 06:55:37;;;;;;;4.68;1.80;;;17.70;99.90;;;;;;5072624;28;20376;-66
2023/07/01 06:58:02;;;;;;;4.95;1.92;;;17.70;99.90;;;;;;5072284;28;20046;-67
2023/07/01 07:00:29;;;;;;;4.53;1.60;;;17.70;99.90;;;;;;5072882;28;20031;-67
2023/07/01 07:02:55;;;;;;;4.13;1.30;;;17.70;99.90;;;;;;5072731;28;20395;-66
2023/07/01 07:05:20;;;;;;;4.75;1.00;;;17.80;99.90;;;;;;5072752;28;20086;-66
2023/07/01 07:07:46;;;;;;;3.80;1.35;;;17.80;99.90;;;;;;5072789;28;20492;-66
2023/07/01 07:10:11;;;;;;;2.85;1.40;;;17.80;99.90;;;;;;5072230;28;20392;-66
2023/07/01 07:12:37;;;;;;;8.40;1.80;;;17.90;99.90;;;;;;5072335;28;20025;-66
2023/07/01 07:15:03;;;;;;;2.95;1.40;;;18.00;99.90;;;;;;5072342;28;20040;-67
2023/07/01 07:17:29;;;;;;;6.63;1.52;;;18.00;99.90;;;;;;5072138;28;20085;-67
2023/07/01 07:19:55;;;;;;;3.45;1.58;;;18.00;99.90;;;;;;5072785;28;20048;-68
2023/07/01 07:22:21;;;;;;;3.90;1.85;;;18.00;99.90;;;;;;5072572;28;20020;-68
2023/07/01 07:24:46;;;;;;;7.18;1.60;;;18.00;99.90;;;;;;5071924;28;20123;-67
2023/07/01 07:27:12;;;;;;;3.38;1.52;;;18.00;99.90;;;;;;5071525;28;20036;-68
2023/07/01 07:29:39;;;;;;;5.63;1.13;;;18.10;99.90;;;;;;5072139;28;20025;-68
2023/07/01 07:32:05;;;;;;;6.90;1.30;;;18.10;99.90;;;;;;5072543;28;20028;-68
2023/07/01 07:34:30;;;;;;;3.30;1.17;;;18.10;99.90;;;;;;5072686;28;20031;-67
2023/07/01 07:36:57;;;;;;;4.00;1.17;;;18.10;99.90;;;;;;5072598;28;20029;-67
2023/07/01 07:39:22;;;;;;;5.53;1.20;;;18.20;99.90;;;;;;5072444;28;20052;-67
2023/07/01 07:41:49;;;;;;;2.45;1.08;;;18.20;99.90;;;;;;5071891;28;20024;-67
2023/07/01 07:44:15;;;;;;;3.00;1.33;;;18.30;99.90;;;;;;5072024;28;20170;-66
2023/07/01 07:46:42;;;;;;;6.35;1.40;;;18.30;99.90;;;;;;5071087;28;20032;-67
2023/07/01 07:49:08;;;;;;;3.00;1.00;;;18.30;99.90;;;;;;5072348;28;20024;-67
2023/07/01 07:51:33;;;;;;;4.32;1.10;;;18.40;99.90;;;;;;5072029;28;20341;-67
2023/07/01 07:53:59;;;;;;;2.13;1.23;;;18.40;99.90;;;;;;5071701;28;20089;-66
2023/07/01 07:56:25;;;;;;;5.20;1.13;;;18.30;99.90;;;;;;5072151;28;20033;-67
2023/07/01 07:58:50;;;;;;;2.97;0.85;;;18.30;99.90;;;;;;5075170;28;20024;-66
2023/07/01 08:01:16;;;;;;;6.38;1.30;;;18.30;99.90;;;;;;5076175;28;20036;-68
2023/07/01 08:03:42;;;;;;;10.32;2.30;;;18.40;99.90;;;;;;5076222;28;20037;-67
2023/07/01 08:06:07;;;;;;;5.47;1.77;;;18.30;99.90;;;;;;5075681;28;20054;-67
2023/07/01 08:08:34;;;;;;;11.70;2.15;;;18.30;99.90;;;;;;5075973;28;20444;-66
2023/07/01 08:11:00;;;;;;;10.63;2.10;;;18.30;99.90;;;;;;5074263;28;20358;-67
2023/07/01 08:13:26;;;;;;;10.68;2.45;;;18.40;99.90;;;;;;5074996;28;20043;-67
2023/07/01 08:15:51;;;;;;;11.85;2.78;;;18.30;99.90;;;;;;5075750;28;20036;-66
2023/07/01 08:18:17;;;;;;;4.97;2.53;;;18.40;99.90;;;;;;5075480;28;20028;-66
2023/07/01 08:20:46;;;;;;;8.23;2.65;;;18.50;99.90;;;;;;5075796;28;20028;-66
2023/07/01 08:23:13;;;;;;;11.80;2.88;;;18.50;99.90;;;;;;5075603;28;20124;-66
2023/07/01 08:25:40;;;;;;;10.77;3.17;;;18.50;99.90;;;;;;5075386;28;20111;-66
2023/07/01 08:28:06;;;;;;;9.43;3.00;;;18.60;99.90;;;;;;5075513;28;20033;-66
2023/07/01 08:30:31;;;;;;;12.23;3.65;;;18.60;99.90;;;;;;5075631;28;20077;-66
2023/07/01 08:32:57;;;;;;;9.38;3.63;;;18.60;99.90;;;;;;5075368;28;20452;-66
2023/07/01 08:35:22;;;;;;;10.05;3.75;;;18.60;99.90;;;;;;5075037;28;20457;-66
2023/07/01 08:37:48;;;;;;;9.18;3.83;;;18.70;99.90;;;;;;5074928;28;20051;-67
2023/07/01 08:40:14;;;;;;;10.93;4.38;;;18.70;99.90;;;;;;5074782;28;20066;-66
2023/07/01 08:42:43;;;;;;;13.70;4.65;;;18.70;99.90;;;;;;5074992;28;20480;-65
2023/07/01 08:45:09;;;;;;;11.90;3.90;;;18.80;99.90;;;;;;5074963;28;20040;-67
2023/07/01 08:47:35;;;;;;;10.25;4.25;;;18.90;99.90;;;;;;5075035;28;20028;-67
2023/07/01 08:50:06;;;;;;;13.57;4.70;;;19.00;99.90;;;;;;5075240;28;20027;-66
2023/07/01 08:52:39;;;;;;;14.40;4.60;;;19.10;99.90;;;;;;5075171;28;20427;-68
2023/07/01 08:55:06;;;;;;;14.82;4.20;;;19.10;99.90;;;;;;5075185;28;20028;-66
2023/07/01 08:57:31;;;;;;;14.05;4.40;;;19.20;99.90;;;;;;5073643;28;20021;-67
2023/07/01 08:59:57;;;;;;;17.67;4.68;;;19.20;99.90;;;;;;5074265;28;20024;-66
2023/07/01 09:02:24;;;;;;;12.63;4.60;;;19.20;99.90;;;;;;5075520;28;20032;-66
2023/07/01 09:04:50;;;;;;;14.60;5.57;;;19.10;99.90;;;;;;5095185;28;20036;-67
2023/07/01 09:07:15;;;;;;;17.48;5.80;;;19.00;99.90;;;;;;5088756;28;20028;-66
2023/07/01 09:09:43;;;;;;;19.10;5.75;;;19.00;99.90;;;;;;5074463;28;20448;-66
2023/07/01 09:12:09;;;;;;;17.60;6.05;;;19.10;99.90;;;;;;5085907;28;20032;-66
2023/07/01 09:14:58;;;;;;;19.52;5.30;;;19.20;99.90;;;;;;5095262;28;20024;-67
2023/07/01 09:17:40;;;;;;;14.25;5.70;;;19.30;99.90;;;;;;5075828;28;20032;-67
2023/07/01 09:20:09;;;;;;;18.20;5.53;;;19.30;99.90;;;;;;5074759;28;20028;-66
2023/07/01 09:22:37;;;;;;;14.93;5.57;;;19.40;99.90;;;;;;5074445;28;20070;-67
2023/07/01 09:25:03;;;;;;;15.77;5.72;;;19.50;99.90;;;;;;5074485;28;20040;-67
2023/07/01 09:27:40;;;;;;;20.92;5.65;;;19.50;99.90;;;;;;5074500;28;20499;-67
2023/07/01 09:30:28;;;;;;;14.32;4.82;;;19.60;99.90;;;;;;5073810;28;20461;-67
2023/07/01 09:33:10;;;;;;;15.75;5.07;;;19.60;99.90;;;;;;5080187;28;20028;-66
2023/07/01 09:35:46;;;;;;;18.48;5.70;;;19.60;99.90;;;;;;5094703;28;20107;-67
2023/07/01 09:38:13;;;;;;;16.67;5.18;;;19.70;99.90;;;;;;5093623;28;20074;-66
2023/07/01 09:40:38;;;;;;;20.17;6.03;;;19.60;99.90;;;;;;5092818;28;20463;-67
2023/07/01 09:43:04;;;;;;;15.43;5.13;;;19.70;99.90;;;;;;5093834;28;20052;-66
2023/07/01 09:45:30;;;;;;;16.45;5.20;;;19.70;99.90;;;;;;5094124;28;20082;-67
2023/07/01 09:47:55;;;;;;;14.98;5.05;;;19.70;99.90;;;;;;5081249;28;20032;-66
2023/07/01 09:50:29;;;;;;;14.43;4.78;;;19.90;99.90;;;;;;5072162;28;20020;-66
2023/07/01 09:52:55;;;;;;;17.85;5.00;;;20.10;99.90;;;;;;5073473;28;20029;-66
2023/07/01 09:55:22;;;;;;;19.05;4.90;;;20.30;99.90;;;;;;5073620;28;20182;-67
2023/07/01 09:57:48;;;;;;;13.95;4.85;;;20.50;99.90;;;;;;5069133;28;20124;-67
2023/07/01 10:00:16;;;;;;;19.02;4.78;;;20.60;99.90;;;;;;5073838;28;20108;-67
2023/07/01 10:02:47;;;;;;;14.98;4.53;;;20.80;99.90;;;;;;5074208;28;20063;-67
2023/07/01 10:05:13;;;;;;;16.90;4.72;;;20.80;99.90;;;;;;5073276;28;20113;-66
2023/07/01 10:07:40;;;;;;;18.88;5.25;;;20.80;99.90;;;;;;5069191;28;20045;-66
2023/07/01 10:10:17;;;;;;;11.55;4.10;;;20.70;99.90;;;;;;5059471;28;20075;-67
2023/07/01 10:12:48;;;;;;;19.50;4.55;;;20.70;99.90;;;;;;5073696;28;20054;-66
2023/07/01 10:15:16;;;;;;;14.02;4.88;;;20.70;99.90;;;;;;5073669;28;20025;-67
2023/07/01 10:17:48;;;;;;;14.30;4.85;;;20.70;99.90;;;;;;5073289;28;20108;-67
2023/07/01 10:20:32;;;;;;;15.85;4.22;;;20.80;99.90;;;;;;5072212;28;20032;-66
2023/07/01 10:23:01;;;;;;;11.45;4.50;;;21.00;99.90;;;;;;5072936;28;20442;-66
2023/07/01 10:25:40;;;;;;;12.73;4.18;;;21.10;99.90;;;;;;5072792;28;20040;-66
2023/07/01 10:28:09;;;;;;;13.30;4.20;;;21.20;99.90;;;;;;5077443;28;20029;-67
2023/07/01 10:30:44;;;;;;;14.32;4.70;;;21.10;99.90;;;;;;5072810;28;20036;-68
2023/07/01 10:33:30;;;;;;;12.05;4.20;;;21.20;99.90;;;;;;5072552;28;20025;-67
2023/07/01 10:36:10;;;;;;;15.15;4.72;;;21.30;99.90;;;;;;5071808;28;20052;-67
2023/07/01 10:38:37;;;;;;;14.82;4.32;;;21.50;99.90;;;;;;5072572;28;20127;-67
2023/07/01 10:41:03;;;;;;;15.50;4.53;;;21.50;99.90;;;;;;5072737;28;20028;-67
2023/07/01 10:43:30;;;;;;;10.38;4.10;;;21.50;99.90;;;;;;5072984;28;20041;-66
2023/07/01 10:46:19;;;;;;;14.93;4.18;;;21.50;99.90;;;;;;5073033;28;20086;-67
2023/07/01 10:49:05;;;;;;;10.80;4.07;;;21.50;99.90;;;;;;5063077;28;20040;-66
2023/07/01 10:51:44;;;;;;;11.90;4.35;;;21.60;99.90;;;;;;5071661;28;20031;-66
2023/07/01 10:54:10;;;;;;;14.30;4.38;;;21.70;99.90;;;;;;5072919;28;20051;-67
2023/07/01 10:56:38;;;;;;;11.68;3.65;;;21.90;99.90;;;;;;5071201;28;20464;-66
2023/07/01 10:59:25;;;;;;;13.77;4.05;;;22.10;99.90;;;;;;5072313;28;20025;-67
2023/07/01 11:01:56;;;;;;;16.30;4.63;;;22.40;99.90;;;;;;5072457;28;20094;-67
2023/07/01 11:04:23;;;;;;;13.75;3.92;;;22.60;99.90;;;;;;5072801;28;20488;-67
2023/07/01 11:06:54;;;;;;;10.65;3.60;;;22.60;99.90;;;;;;5072633;28;20332;-66
2023/07/01 11:09:32;;;;;;;9.38;3.97;;;22.50;99.90;;;;;;5072786;28;20033;-66
2023/07/01 11:12:03;;;;;;;9.60;4.18;;;22.30;99.90;;;;;;5072418;28;20350;-67
2023/07/01 11:14:34;;;;;;;8.18;3.90;;;22.20;99.90;;;;;;5072220;28;20112;-66
2023/07/01 11:17:13;;;;;;;12.77;3.63;;;22.10;99.90;;;;;;5071839;28;20514;-67
2023/07/01 11:19:39;;;;;;;8.48;3.15;;;22.00;99.90;;;;;;5072543;28;20222;-67
2023/07/01 11:22:06;;;;;;;9.48;3.40;;;21.90;99.90;;;;;;5072579;28;20516;-67
2023/07/01 11:24:32;;;;;;;6.07;3.05;;;21.70;99.90;;;;;;5072330;28;20043;-67
2023/07/01 11:27:02;;;;;;;9.52;3.60;;;21.40;99.90;;;;;;5072265;28;20020;-67
2023/07/01 11:29:29;;;;;;;10.85;3.45;;;21.30;99.90;;;;;;5069631;28;20385;-66
2023/07/01 11:31:59;;;;;;;11.93;3.78;;;21.20;99.90;;;;;;5071969;28;20025;-68
2023/07/01 11:34:26;;;;;;;12.85;4.40;;;21.10;99.90;;;;;;5072540;28;20046;-67
2023/07/01 11:36:52;;;;;;;11.45;3.70;;;21.10;99.90;;;;;;5071376;28;20051;-67
2023/07/01 11:39:21;;;;;;;11.30;4.25;;;21.10;99.90;;;;;;5070650;28;20044;-67
2023/07/01 11:41:52;;;;;;;10.02;3.63;;;21.00;99.90;;;;;;5070465;28;20090;-66
2023/07/01 11:44:23;;;;;;;5.22;3.15;;;20.90;99.90;;;;;;5070562;28;20404;-65
2023/07/01 11:46:48;;;;;;;10.23;3.80;;;20.70;99.90;;;;;;5054400;28;20102;-67
2023/07/01 11:49:23;;;;;;;9.00;3.70;;;20.40;99.90;;;;;;5049501;28;20457;-67
2023/07/01 11:51:50;;;;;;;6.60;3.22;;;20.20;99.90;;;;;;5068833;28;20027;-67
2023/07/01 11:54:18;;;;;;;7.32;4.00;;;20.00;99.90;;;;;;5071847;28;20033;-68
2023/07/01 11:56:44;;;;;;;6.22;3.53;;;19.90;99.90;;;;;;5072161;28;20074;-68
2023/07/01 11:59:10;;;;;;;9.23;4.18;;;19.80;99.90;;;;;;5072175;28;20024;-67
2023/07/01 12:01:38;;;;;;;5.50;3.92;;;19.80;99.90;;;;;;5070673;28;20036;-67
2023/07/01 12:04:17;;;;;;;9.93;4.20;;;19.70;99.90;;;;;;5071440;28;20040;-68
2023/07/01 12:06:43;;;;;;;9.75;4.40;;;19.70;99.90;;;;;;5080334;28;20036;-67
2023/07/01 12:09:09;;;;;;;10.30;4.80;;;19.60;99.90;;;;;;5077345;28;20028;-67
2023/07/01 12:11:47;;;;;;;9.50;4.97;;;19.60;99.90;;;;;;5090283;28;20031;-68
2023/07/01 12:14:17;;;;;;;8.43;3.95;;;19.50;99.90;;;;;;5078714;28;20032;-67
2023/07/01 12:16:43;;;;;;;8.82;4.50;;;19.60;99.90;;;;;;5071516;28;20033;-68
2023/07/01 12:19:09;;;;;;;6.68;3.63;;;19.60;99.90;;;;;;5070373;28;20482;-68
2023/07/01 12:21:34;;;;;;;9.48;3.65;;;19.50;99.90;;;;;;5072560;28;20115;-68
2023/07/01 12:24:00;;;;;;;7.97;3.50;;;19.30;99.90;;;;;;5090714;28;20039;-67
2023/07/01 12:26:25;;;;;;;6.43;2.80;;;19.30;99.90;;;;;;5090672;28;20486;-66
2023/07/01 12:28:51;;;;;;;6.18;2.88;;;19.20;99.90;;;;;;5090398;28;20024;-67
2023/07/01 12:31:16;;;;;;;6.10;3.10;;;19.20;99.90;;;;;;5090719;28;20123;-66
2023/07/01 12:33:42;;;;;;;6.18;3.25;;;19.20;99.90;;;;;;5089920;28;20729;-66
2023/07/01 12:36:08;;;;;;;6.00;3.40;;;19.20;99.90;;;;;;5091553;28;20035;-67
2023/07/01 12:38:34;;;;;;;8.20;3.20;;;19.30;99.90;;;;;;5089333;28;20055;-67
2023/07/01 12:41:02;;;;;;;3.40;2.67;;;19.40;99.90;;;;;;5070911;28;20021;-66